sensor_id;sensor_type;location;lat;lon;timestamp;pressure;altitude;pressure_sealevel;temperature;humidity
39223;BME280;24936;46.328;11.026;2024-01-11T00:00:06;95040.47;;;-3.55;100.00
39223;BME280;24936;46.328;11.026;2024-01-11T00:02:32;95038.81;;;-3.56;100.00
39223;BME280;24936;46.328;11.026;2024-01-11T00:04:57;95033.47;;;-3.50;100.00
39223;BME280;24936;46.328;11.026;2024-01-11T00:07:23;95032.97;;;-3.31;100.00
39223;BME280;24936;46.328;11.026;2024-01-11T00:09:48;95028.22;;;-3.14;100.00
39223;BME280;24936;46.328;11.026;2024-01-11T00:12:14;95027.78;;;-3.00;100.00
39223;BME280;24936;46.328;11.026;2024-01-11T00:14:40;95026.59;;;-2.88;100.00
39223;BME280;24936;46.328;11.026;2024-01-11T00:17:05;95025.28;;;-3.01;100.00
39223;BME280;24936;46.328;11.026;2024-01-11T00:19:31;95028.59;;;-3.28;100.00
39223;BME280;24936;46.328;11.026;2024-01-11T00:21:57;95023.78;;;-3.40;100.00
39223;BME280;24936;46.328;11.026;2024-01-11T00:24:22;95027.56;;;-3.54;100.00
39223;BME280;24936;46.328;11.026;2024-01-11T00:26:48;95023.50;;;-3.62;100.00
39223;BME280;24936;46.328;11.026;2024-01-11T00:29:13;95021.56;;;-3.54;100.00
39223;BME280;24936;46.328;11.026;2024-01-11T00:31:39;95026.50;;;-3.46;100.00
39223;BME280;24936;46.328;11.026;2024-01-11T00:34:05;95033.47;;;-3.50;100.00
39223;BME280;24936;46.328;11.026;2024-01-11T00:36:32;95020.19;;;-3.67;100.00
39223;BME280;24936;46.328;11.026;2024-01-11T00:38:58;95020.53;;;-3.80;100.00
39223;BME280;24936;46.328;11.026;2024-01-11T00:41:24;95021.59;;;-3.87;100.00
39223;BME280;24936;46.328;11.026;2024-01-11T00:43:50;95023.22;;;-3.85;100.00
39223;BME280;24936;46.328;11.026;2024-01-11T00:46:16;95020.16;;;-3.97;100.00
39223;BME280;24936;46.328;11.026;2024-01-11T00:48:41;95010.81;;;-4.02;100.00
39223;BME280;24936;46.328;11.026;2024-01-11T00:51:06;95025.44;;;-4.04;100.00
39223;BME280;24936;46.328;11.026;2024-01-11T00:53:32;95019.63;;;-3.77;100.00
39223;BME280;24936;46.328;11.026;2024-01-11T00:55:59;95018.31;;;-3.61;100.00
39223;BME280;24936;46.328;11.026;2024-01-11T00:58:24;95019.78;;;-3.52;100.00
39223;BME280;24936;46.328;11.026;2024-01-11T01:00:50;95021.47;;;-3.51;100.00
39223;BME280;24936;46.328;11.026;2024-01-11T01:03:15;95018.56;;;-3.37;100.00
39223;BME280;24936;46.328;11.026;2024-01-11T01:05:41;95019.47;;;-3.40;100.00
39223;BME280;24936;46.328;11.026;2024-01-11T01:08:07;95022.28;;;-3.49;100.00
39223;BME280;24936;46.328;11.026;2024-01-11T01:10:32;95025.81;;;-3.51;100.00
39223;BME280;24936;46.328;11.026;2024-01-11T01:12:58;95030.09;;;-3.52;100.00
39223;BME280;24936;46.328;11.026;2024-01-11T01:15:24;95028.16;;;-3.44;100.00
39223;BME280;24936;46.328;11.026;2024-01-11T01:17:49;95027.84;;;-3.31;100.00
39223;BME280;24936;46.328;11.026;2024-01-11T01:20:15;95024.44;;;-3.33;100.00
39223;BME280;24936;46.328;11.026;2024-01-11T01:22:40;95017.44;;;-3.28;100.00
39223;BME280;24936;46.328;11.026;2024-01-11T01:25:06;95018.78;;;-3.15;100.00
39223;BME280;24936;46.328;11.026;2024-01-11T01:27:31;95016.91;;;-3.10;100.00
39223;BME280;24936;46.328;11.026;2024-01-11T01:29:57;95018.59;;;-3.09;100.00
39223;BME280;24936;46.328;11.026;2024-01-11T01:32:22;95016.97;;;-3.11;100.00
39223;BME280;24936;46.328;11.026;2024-01-11T01:34:48;95015.13;;;-3.08;100.00
39223;BME280;24936;46.328;11.026;2024-01-11T01:37:13;95018.44;;;-3.02;100.00
39223;BME280;24936;46.328;11.026;2024-01-11T01:39:38;95013.38;;;-3.05;100.00
39223;BME280;24936;46.328;11.026;2024-01-11T01:42:05;95013.88;;;-2.93;100.00
39223;BME280;24936;46.328;11.026;2024-01-11T01:44:31;95019.94;;;-2.95;100.00
39223;BME280;24936;46.328;11.026;2024-01-11T01:46:56;95014.41;;;-2.83;100.00
39223;BME280;24936;46.328;11.026;2024-01-11T01:49:22;95013.75;;;-2.89;100.00
39223;BME280;24936;46.328;11.026;2024-01-11T01:51:48;95006.06;;;-2.91;100.00
39223;BME280;24936;46.328;11.026;2024-01-11T01:54:15;95011.16;;;-2.89;100.00
39223;BME280;24936;46.328;11.026;2024-01-11T01:56:41;95006.69;;;-2.83;100.00
39223;BME280;24936;46.328;11.026;2024-01-11T01:59:08;95015.06;;;-2.76;100.00
39223;BME280;24936;46.328;11.026;2024-01-11T02:01:35;95004.88;;;-2.79;100.00
39223;BME280;24936;46.328;11.026;2024-01-11T02:04:01;95010.72;;;-2.74;100.00
39223;BME280;24936;46.328;11.026;2024-01-11T02:06:28;95011.44;;;-2.69;100.00
39223;BME280;24936;46.328;11.026;2024-01-11T02:08:56;95016.50;;;-2.66;100.00
39223;BME280;24936;46.328;11.026;2024-01-11T02:11:21;95011.34;;;-2.66;100.00
39223;BME280;24936;46.328;11.026;2024-01-11T02:13:49;95012.19;;;-2.65;100.00
39223;BME280;24936;46.328;11.026;2024-01-11T02:16:15;95015.63;;;-2.66;100.00
39223;BME280;24936;46.328;11.026;2024-01-11T02:18:40;95013.69;;;-2.58;100.00
39223;BME280;24936;46.328;11.026;2024-01-11T02:21:09;95012.78;;;-2.57;100.00
39223;BME280;24936;46.328;11.026;2024-01-11T02:23:39;95018.94;;;-2.61;100.00
39223;BME280;24936;46.328;11.026;2024-01-11T02:26:11;95021.22;;;-2.52;100.00
39223;BME280;24936;46.328;11.026;2024-01-11T02:28:36;95009.56;;;-2.37;100.00
39223;BME280;24936;46.328;11.026;2024-01-11T02:31:01;95021.13;;;-2.49;100.00
39223;BME280;24936;46.328;11.026;2024-01-11T02:33:27;95015.56;;;-2.63;100.00
39223;BME280;24936;46.328;11.026;2024-01-11T02:35:53;95016.38;;;-2.63;100.00
39223;BME280;24936;46.328;11.026;2024-01-11T02:38:18;95012.34;;;-2.71;100.00
39223;BME280;24936;46.328;11.026;2024-01-11T02:40:44;95019.25;;;-2.72;100.00
39223;BME280;24936;46.328;11.026;2024-01-11T02:43:11;95016.78;;;-2.47;100.00
39223;BME280;24936;46.328;11.026;2024-01-11T02:45:37;95014.59;;;-2.32;100.00
39223;BME280;24936;46.328;11.026;2024-01-11T02:48:02;95009.84;;;-2.44;100.00
39223;BME280;24936;46.328;11.026;2024-01-11T02:50:28;95012.41;;;-2.44;100.00
39223;BME280;24936;46.328;11.026;2024-01-11T02:52:53;95009.19;;;-2.51;100.00
39223;BME280;24936;46.328;11.026;2024-01-11T02:55:19;95008.63;;;-2.61;100.00
39223;BME280;24936;46.328;11.026;2024-01-11T02:57:44;95008.72;;;-2.64;100.00
39223;BME280;24936;46.328;11.026;2024-01-11T03:00:10;95004.44;;;-2.65;100.00
39223;BME280;24936;46.328;11.026;2024-01-11T03:02:37;95005.38;;;-2.68;100.00
39223;BME280;24936;46.328;11.026;2024-01-11T03:05:03;95000.25;;;-2.69;100.00
39223;BME280;24936;46.328;11.026;2024-01-11T03:07:29;94997.66;;;-2.68;100.00
39223;BME280;24936;46.328;11.026;2024-01-11T03:09:55;94994.19;;;-2.67;100.00
39223;BME280;24936;46.328;11.026;2024-01-11T03:12:21;94995.81;;;-2.64;100.00
39223;BME280;24936;46.328;11.026;2024-01-11T03:14:47;94998.25;;;-2.59;100.00
39223;BME280;24936;46.328;11.026;2024-01-11T03:17:13;94999.19;;;-2.62;100.00
39223;BME280;24936;46.328;11.026;2024-01-11T03:19:41;94998.91;;;-2.53;100.00
39223;BME280;24936;46.328;11.026;2024-01-11T03:22:06;94998.09;;;-2.55;100.00
39223;BME280;24936;46.328;11.026;2024-01-11T03:24:32;94984.22;;;-2.51;100.00
39223;BME280;24936;46.328;11.026;2024-01-11T03:26:58;94983.66;;;-2.32;100.00
39223;BME280;24936;46.328;11.026;2024-01-11T03:29:24;94984.31;;;-2.25;100.00
39223;BME280;24936;46.328;11.026;2024-01-11T03:31:49;94990.59;;;-2.34;100.00
39223;BME280;24936;46.328;11.026;2024-01-11T03:34:15;94988.03;;;-2.34;100.00
39223;BME280;24936;46.328;11.026;2024-01-11T03:36:40;94992.94;;;-2.55;100.00
39223;BME280;24936;46.328;11.026;2024-01-11T03:39:05;94998.47;;;-2.67;100.00
39223;BME280;24936;46.328;11.026;2024-01-11T03:41:31;94990.16;;;-2.75;100.00
39223;BME280;24936;46.328;11.026;2024-01-11T03:43:57;94989.66;;;-2.87;100.00
39223;BME280;24936;46.328;11.026;2024-01-11T03:46:22;94990.91;;;-3.00;100.00
39223;BME280;24936;46.328;11.026;2024-01-11T03:48:48;94992.75;;;-3.05;100.00
39223;BME280;24936;46.328;11.026;2024-01-11T03:51:13;94999.38;;;-3.27;100.00
39223;BME280;24936;46.328;11.026;2024-01-11T03:53:39;94994.56;;;-3.39;100.00
39223;BME280;24936;46.328;11.026;2024-01-11T03:56:04;94995.75;;;-3.51;100.00
39223;BME280;24936;46.328;11.026;2024-01-11T03:58:30;94992.75;;;-3.67;100.00
39223;BME280;24936;46.328;11.026;2024-01-11T04:00:55;94992.47;;;-3.89;100.00
39223;BME280;24936;46.328;11.026;2024-01-11T04:03:21;94992.81;;;-4.02;100.00
39223;BME280;24936;46.328;11.026;2024-01-11T04:05:46;94991.09;;;-4.03;100.00
39223;BME280;24936;46.328;11.026;2024-01-11T04:08:12;94995.00;;;-4.21;100.00
39223;BME280;24936;46.328;11.026;2024-01-11T04:10:37;94982.53;;;-4.38;100.00
39223;BME280;24936;46.328;11.026;2024-01-11T04:13:03;94990.59;;;-4.52;100.00
39223;BME280;24936;46.328;11.026;2024-01-11T04:15:28;94983.00;;;-4.56;100.00
39223;BME280;24936;46.328;11.026;2024-01-11T04:17:54;94986.81;;;-4.73;100.00
39223;BME280;24936;46.328;11.026;2024-01-11T04:20:19;94977.03;;;-4.95;100.00
39223;BME280;24936;46.328;11.026;2024-01-11T04:22:45;94978.69;;;-4.94;100.00
39223;BME280;24936;46.328;11.026;2024-01-11T04:25:10;94977.81;;;-4.93;100.00
39223;BME280;24936;46.328;11.026;2024-01-11T04:27:36;94983.81;;;-4.92;100.00
39223;BME280;24936;46.328;11.026;2024-01-11T04:30:02;94977.97;;;-4.99;100.00
39223;BME280;24936;46.328;11.026;2024-01-11T04:32:27;94983.31;;;-4.70;100.00
39223;BME280;24936;46.328;11.026;2024-01-11T04:34:52;94985.19;;;-4.77;100.00
39223;BME280;24936;46.328;11.026;2024-01-11T04:37:18;94983.56;;;-4.81;100.00
39223;BME280;24936;46.328;11.026;2024-01-11T04:39:44;94974.19;;;-4.82;100.00
39223;BME280;24936;46.328;11.026;2024-01-11T04:42:09;94980.19;;;-4.83;100.00
39223;BME280;24936;46.328;11.026;2024-01-11T04:44:35;94982.28;;;-5.01;100.00
39223;BME280;24936;46.328;11.026;2024-01-11T04:47:00;94986.31;;;-5.30;100.00
39223;BME280;24936;46.328;11.026;2024-01-11T04:49:26;94985.19;;;-5.16;100.00
39223;BME280;24936;46.328;11.026;2024-01-11T04:51:51;94984.38;;;-5.18;100.00
39223;BME280;24936;46.328;11.026;2024-01-11T04:54:17;94987.19;;;-5.31;100.00
39223;BME280;24936;46.328;11.026;2024-01-11T04:56:42;94987.75;;;-5.59;100.00
39223;BME280;24936;46.328;11.026;2024-01-11T04:59:07;94981.50;;;-5.45;100.00
39223;BME280;24936;46.328;11.026;2024-01-11T05:01:33;94983.50;;;-5.58;100.00
39223;BME280;24936;46.328;11.026;2024-01-11T05:03:58;94976.38;;;-5.45;100.00
39223;BME280;24936;46.328;11.026;2024-01-11T05:06:24;94982.25;;;-5.40;100.00
39223;BME280;24936;46.328;11.026;2024-01-11T05:08:51;94979.00;;;-5.48;100.00
39223;BME280;24936;46.328;11.026;2024-01-11T05:11:24;94984.13;;;-5.47;100.00
39223;BME280;24936;46.328;11.026;2024-01-11T05:13:50;94979.19;;;-5.58;100.00
39223;BME280;24936;46.328;11.026;2024-01-11T05:16:28;94976.63;;;-5.58;100.00
39223;BME280;24936;46.328;11.026;2024-01-11T05:18:55;94982.34;;;-5.89;100.00
39223;BME280;24936;46.328;11.026;2024-01-11T05:21:22;94979.88;;;-5.93;100.00
39223;BME280;24936;46.328;11.026;2024-01-11T05:23:48;94984.66;;;-5.76;100.00
39223;BME280;24936;46.328;11.026;2024-01-11T05:26:17;94974.09;;;-5.61;100.00
39223;BME280;24936;46.328;11.026;2024-01-11T05:28:43;94978.00;;;-5.41;100.00
39223;BME280;24936;46.328;11.026;2024-01-11T05:31:10;94981.16;;;-5.28;100.00
39223;BME280;24936;46.328;11.026;2024-01-11T05:33:36;94969.13;;;-5.25;100.00
39223;BME280;24936;46.328;11.026;2024-01-11T05:36:01;94966.00;;;-5.39;100.00
39223;BME280;24936;46.328;11.026;2024-01-11T05:38:27;94973.84;;;-5.48;100.00
39223;BME280;24936;46.328;11.026;2024-01-11T05:40:53;94965.53;;;-5.58;100.00
39223;BME280;24936;46.328;11.026;2024-01-11T05:43:19;94968.06;;;-5.57;100.00
39223;BME280;24936;46.328;11.026;2024-01-11T05:45:44;94968.97;;;-5.59;100.00
39223;BME280;24936;46.328;11.026;2024-01-11T05:48:10;94965.78;;;-5.72;100.00
39223;BME280;24936;46.328;11.026;2024-01-11T05:50:36;94971.09;;;-5.81;100.00
39223;BME280;24936;46.328;11.026;2024-01-11T05:53:01;94968.59;;;-5.85;100.00
39223;BME280;24936;46.328;11.026;2024-01-11T05:55:27;94970.31;;;-5.85;100.00
39223;BME280;24936;46.328;11.026;2024-01-11T05:57:52;94968.97;;;-6.03;100.00
39223;BME280;24936;46.328;11.026;2024-01-11T06:00:18;94972.09;;;-5.89;100.00
39223;BME280;24936;46.328;11.026;2024-01-11T06:02:43;94969.91;;;-5.63;100.00
39223;BME280;24936;46.328;11.026;2024-01-11T06:05:09;94977.63;;;-5.65;100.00
39223;BME280;24936;46.328;11.026;2024-01-11T06:07:35;94973.53;;;-5.75;100.00
39223;BME280;24936;46.328;11.026;2024-01-11T06:10:00;94971.16;;;-5.85;100.00
39223;BME280;24936;46.328;11.026;2024-01-11T06:12:30;94965.22;;;-5.87;100.00
39223;BME280;24936;46.328;11.026;2024-01-11T06:14:56;94973.78;;;-5.88;100.00
39223;BME280;24936;46.328;11.026;2024-01-11T06:17:23;94973.78;;;-5.88;100.00
39223;BME280;24936;46.328;11.026;2024-01-11T06:19:49;94970.22;;;-5.80;100.00
39223;BME280;24936;46.328;11.026;2024-01-11T06:22:14;94973.66;;;-5.81;100.00
39223;BME280;24936;46.328;11.026;2024-01-11T06:24:39;94965.94;;;-5.78;100.00
39223;BME280;24936;46.328;11.026;2024-01-11T06:27:05;94983.88;;;-5.78;100.00
39223;BME280;24936;46.328;11.026;2024-01-11T06:29:31;94979.56;;;-5.78;100.00
39223;BME280;24936;46.328;11.026;2024-01-11T06:31:56;94980.41;;;-5.76;100.00
39223;BME280;24936;46.328;11.026;2024-01-11T06:34:22;94978.38;;;-5.60;100.00
39223;BME280;24936;46.328;11.026;2024-01-11T06:36:47;94980.69;;;-5.47;100.00
39223;BME280;24936;46.328;11.026;2024-01-11T06:39:13;94976.25;;;-5.39;100.00
39223;BME280;24936;46.328;11.026;2024-01-11T06:41:38;94976.78;;;-5.23;100.00
39223;BME280;24936;46.328;11.026;2024-01-11T06:44:04;94976.88;;;-5.28;100.00
39223;BME280;24936;46.328;11.026;2024-01-11T06:46:32;94982.69;;;-5.19;100.00
39223;BME280;24936;46.328;11.026;2024-01-11T06:48:58;94973.88;;;-5.08;100.00
39223;BME280;24936;46.328;11.026;2024-01-11T06:51:23;94983.94;;;-4.98;100.00
39223;BME280;24936;46.328;11.026;2024-01-11T06:53:49;94983.03;;;-4.96;100.00
39223;BME280;24936;46.328;11.026;2024-01-11T06:56:16;94981.00;;;-4.81;100.00
39223;BME280;24936;46.328;11.026;2024-01-11T06:58:43;94987.09;;;-4.85;100.00
39223;BME280;24936;46.328;11.026;2024-01-11T07:01:09;94985.53;;;-4.93;100.00
39223;BME280;24936;46.328;11.026;2024-01-11T07:03:34;94989.59;;;-4.84;100.00
39223;BME280;24936;46.328;11.026;2024-01-11T07:05:59;94985.19;;;-4.77;100.00
39223;BME280;24936;46.328;11.026;2024-01-11T07:08:25;94981.03;;;-4.83;100.00
39223;BME280;24936;46.328;11.026;2024-01-11T07:10:50;94981.25;;;-4.94;100.00
39223;BME280;24936;46.328;11.026;2024-01-11T07:13:16;94986.22;;;-4.86;100.00
39223;BME280;24936;46.328;11.026;2024-01-11T07:15:42;94995.44;;;-4.77;100.00
39223;BME280;24936;46.328;11.026;2024-01-11T07:18:08;94981.59;;;-4.70;100.00
39223;BME280;24936;46.328;11.026;2024-01-11T07:20:34;94991.06;;;-4.72;100.00
39223;BME280;24936;46.328;11.026;2024-01-11T07:22:59;94986.56;;;-4.64;100.00
39223;BME280;24936;46.328;11.026;2024-01-11T07:25:25;94984.28;;;-4.76;100.00
39223;BME280;24936;46.328;11.026;2024-01-11T07:27:51;94990.19;;;-4.71;100.00
39223;BME280;24936;46.328;11.026;2024-01-11T07:30:17;94988.50;;;-4.72;100.00
39223;BME280;24936;46.328;11.026;2024-01-11T07:32:44;94980.03;;;-4.77;100.00
39223;BME280;24936;46.328;11.026;2024-01-11T07:35:09;94991.94;;;-4.73;100.00
39223;BME280;24936;46.328;11.026;2024-01-11T07:37:36;94995.59;;;-4.83;100.00
39223;BME280;24936;46.328;11.026;2024-01-11T07:40:02;95003.50;;;-4.93;100.00
39223;BME280;24936;46.328;11.026;2024-01-11T07:42:28;94999.38;;;-5.00;100.00
39223;BME280;24936;46.328;11.026;2024-01-11T07:44:54;95000.22;;;-4.99;100.00
39223;BME280;24936;46.328;11.026;2024-01-11T07:47:20;95008.09;;;-5.07;100.00
39223;BME280;24936;46.328;11.026;2024-01-11T07:49:45;95005.50;;;-5.07;100.00
39223;BME280;24936;46.328;11.026;2024-01-11T07:52:11;95009.94;;;-5.12;100.00
39223;BME280;24936;46.328;11.026;2024-01-11T07:54:36;95012.00;;;-5.30;100.00
39223;BME280;24936;46.328;11.026;2024-01-11T07:57:03;95017.53;;;-5.08;100.00
39223;BME280;24936;46.328;11.026;2024-01-11T07:59:32;95009.88;;;-4.71;100.00
39223;BME280;24936;46.328;11.026;2024-01-11T08:01:58;95011.28;;;-4.56;100.00
39223;BME280;24936;46.328;11.026;2024-01-11T08:04:23;95011.31;;;-4.23;100.00
39223;BME280;24936;46.328;11.026;2024-01-11T08:06:49;95014.88;;;-4.27;100.00
39223;BME280;24936;46.328;11.026;2024-01-11T08:09:14;95015.28;;;-4.10;100.00
39223;BME280;24936;46.328;11.026;2024-01-11T08:11:40;95021.84;;;-3.98;100.00
39223;BME280;24936;46.328;11.026;2024-01-11T08:14:08;95021.53;;;-4.20;100.00
39223;BME280;24936;46.328;11.026;2024-01-11T08:16:34;95020.16;;;-4.34;100.00
39223;BME280;24936;46.328;11.026;2024-01-11T08:19:00;95017.69;;;-4.38;100.00
39223;BME280;24936;46.328;11.026;2024-01-11T08:21:28;95015.00;;;-4.32;100.00
39223;BME280;24936;46.328;11.026;2024-01-11T08:23:53;95016.66;;;-4.31;100.00
39223;BME280;24936;46.328;11.026;2024-01-11T08:26:20;95013.81;;;-4.20;100.00
39223;BME280;24936;46.328;11.026;2024-01-11T08:28:47;95008.63;;;-4.17;100.00
39223;BME280;24936;46.328;11.026;2024-01-11T08:31:13;95009.72;;;-4.27;100.00
39223;BME280;24936;46.328;11.026;2024-01-11T08:33:39;95014.94;;;-4.31;100.00
39223;BME280;24936;46.328;11.026;2024-01-11T08:36:05;95012.31;;;-4.27;100.00
39223;BME280;24936;46.328;11.026;2024-01-11T08:38:32;95004.84;;;-4.04;100.00
39223;BME280;24936;46.328;11.026;2024-01-11T08:40:57;94991.91;;;-3.36;100.00
39223;BME280;24936;46.328;11.026;2024-01-11T08:43:25;94989.97;;;-2.99;100.00
39223;BME280;24936;46.328;11.026;2024-01-11T08:45:50;94987.97;;;-2.88;100.00
39223;BME280;24936;46.328;11.026;2024-01-11T08:48:16;94978.91;;;-2.44;100.00
39223;BME280;24936;46.328;11.026;2024-01-11T08:50:42;94981.59;;;-1.95;100.00
39223;BME280;24936;46.328;11.026;2024-01-11T08:53:07;94981.50;;;-1.67;100.00
39223;BME280;24936;46.328;11.026;2024-01-11T08:55:33;94976.22;;;-1.16;100.00
39223;BME280;24936;46.328;11.026;2024-01-11T08:57:58;94982.78;;;-0.39;100.00
39223;BME280;24936;46.328;11.026;2024-01-11T09:00:24;94989.31;;;-0.29;100.00
39223;BME280;24936;46.328;11.026;2024-01-11T09:02:49;94981.56;;;-0.08;100.00
39223;BME280;24936;46.328;11.026;2024-01-11T09:05:15;94990.59;;;0.04;100.00
39223;BME280;24936;46.328;11.026;2024-01-11T09:07:41;94986.13;;;0.07;100.00
39223;BME280;24936;46.328;11.026;2024-01-11T09:10:08;94989.09;;;0.79;100.00
39223;BME280;24936;46.328;11.026;2024-01-11T09:12:37;94988.81;;;1.62;100.00
39223;BME280;24936;46.328;11.026;2024-01-11T09:15:03;94985.13;;;2.55;100.00
39223;BME280;24936;46.328;11.026;2024-01-11T09:17:29;94981.56;;;3.72;100.00
39223;BME280;24936;46.328;11.026;2024-01-11T09:19:55;94984.88;;;4.06;100.00
39223;BME280;24936;46.328;11.026;2024-01-11T09:22:20;94988.50;;;4.79;100.00
39223;BME280;24936;46.328;11.026;2024-01-11T09:24:46;94994.50;;;3.89;100.00
39223;BME280;24936;46.328;11.026;2024-01-11T09:27:11;94991.81;;;3.75;100.00
39223;BME280;24936;46.328;11.026;2024-01-11T09:29:42;95006.34;;;4.56;100.00
39223;BME280;24936;46.328;11.026;2024-01-11T09:32:08;94994.06;;;5.87;100.00
39223;BME280;24936;46.328;11.026;2024-01-11T09:34:34;94993.34;;;7.43;100.00
39223;BME280;24936;46.328;11.026;2024-01-11T09:36:59;95003.13;;;8.26;100.00
39223;BME280;24936;46.328;11.026;2024-01-11T09:39:25;95001.53;;;8.24;100.00
39223;BME280;24936;46.328;11.026;2024-01-11T09:41:58;95011.41;;;8.69;100.00
39223;BME280;24936;46.328;11.026;2024-01-11T09:44:25;95014.50;;;9.44;100.00
39223;BME280;24936;46.328;11.026;2024-01-11T09:46:52;95016.75;;;8.67;100.00
39223;BME280;24936;46.328;11.026;2024-01-11T09:49:19;95017.63;;;7.19;100.00
39223;BME280;24936;46.328;11.026;2024-01-11T09:51:47;95005.50;;;6.92;100.00
39223;BME280;24936;46.328;11.026;2024-01-11T09:54:14;94999.00;;;6.72;100.00
39223;BME280;24936;46.328;11.026;2024-01-11T09:56:42;94989.00;;;5.71;100.00
39223;BME280;24936;46.328;11.026;2024-01-11T09:59:09;94979.84;;;5.22;100.00
39223;BME280;24936;46.328;11.026;2024-01-11T10:01:36;94983.00;;;5.96;100.00
39223;BME280;24936;46.328;11.026;2024-01-11T10:04:02;94977.22;;;5.36;100.00
39223;BME280;24936;46.328;11.026;2024-01-11T10:06:32;94979.16;;;4.89;100.00
39223;BME280;24936;46.328;11.026;2024-01-11T10:08:58;94968.56;;;5.21;100.00
39223;BME280;24936;46.328;11.026;2024-01-11T10:11:24;94964.25;;;5.76;100.00
39223;BME280;24936;46.328;11.026;2024-01-11T10:13:56;94966.13;;;5.74;100.00
39223;BME280;24936;46.328;11.026;2024-01-11T10:16:21;94957.41;;;5.46;100.00
39223;BME280;24936;46.328;11.026;2024-01-11T10:18:47;94943.97;;;6.61;100.00
39223;BME280;24936;46.328;11.026;2024-01-11T10:21:12;94946.59;;;6.07;100.00
39223;BME280;24936;46.328;11.026;2024-01-11T10:23:39;94944.59;;;4.56;100.00
39223;BME280;24936;46.328;11.026;2024-01-11T10:26:05;94936.72;;;3.82;100.00
39223;BME280;24936;46.328;11.026;2024-01-11T10:28:32;94933.81;;;4.03;100.00
39223;BME280;24936;46.328;11.026;2024-01-11T10:31:02;94925.41;;;2.71;100.00
39223;BME280;24936;46.328;11.026;2024-01-11T10:33:28;94928.91;;;2.37;100.00
39223;BME280;24936;46.328;11.026;2024-01-11T10:35:53;94920.22;;;1.85;100.00
39223;BME280;24936;46.328;11.026;2024-01-11T10:38:22;94919.22;;;2.23;100.00
39223;BME280;24936;46.328;11.026;2024-01-11T10:40:49;94911.31;;;3.24;100.00
39223;BME280;24936;46.328;11.026;2024-01-11T10:43:19;94916.13;;;3.15;100.00
39223;BME280;24936;46.328;11.026;2024-01-11T10:45:48;94913.66;;;4.21;100.00
39223;BME280;24936;46.328;11.026;2024-01-11T10:48:15;94907.91;;;4.88;100.00
39223;BME280;24936;46.328;11.026;2024-01-11T10:50:45;94907.44;;;4.38;100.00
39223;BME280;24936;46.328;11.026;2024-01-11T10:53:45;94894.59;;;4.93;100.00
39223;BME280;24936;46.328;11.026;2024-01-11T10:56:11;94890.72;;;5.55;100.00
39223;BME280;24936;46.328;11.026;2024-01-11T10:58:40;94893.06;;;5.03;100.00
39223;BME280;24936;46.328;11.026;2024-01-11T11:01:07;94890.78;;;4.84;100.00
39223;BME280;24936;46.328;11.026;2024-01-11T11:03:34;94883.97;;;5.78;100.00
39223;BME280;24936;46.328;11.026;2024-01-11T11:06:01;94887.78;;;6.66;100.00
39223;BME280;24936;46.328;11.026;2024-01-11T11:08:28;94893.66;;;7.20;100.00
39223;BME280;24936;46.328;11.026;2024-01-11T11:10:57;94885.00;;;5.63;100.00
39223;BME280;24936;46.328;11.026;2024-01-11T11:13:24;94881.97;;;7.13;100.00
39223;BME280;24936;46.328;11.026;2024-01-11T11:15:52;94876.59;;;6.51;100.00
39223;BME280;24936;46.328;11.026;2024-01-11T11:18:19;94871.13;;;5.35;100.00
39223;BME280;24936;46.328;11.026;2024-01-11T11:20:47;94857.34;;;5.46;100.00
39223;BME280;24936;46.328;11.026;2024-01-11T11:23:17;94864.16;;;4.21;100.00
39223;BME280;24936;46.328;11.026;2024-01-11T11:25:46;94860.53;;;5.51;100.00
39223;BME280;24936;46.328;11.026;2024-01-11T11:28:13;94858.47;;;6.87;100.00
39223;BME280;24936;46.328;11.026;2024-01-11T11:30:41;94863.38;;;6.92;100.00
39223;BME280;24936;46.328;11.026;2024-01-11T11:33:22;94852.13;;;6.26;100.00
39223;BME280;24936;46.328;11.026;2024-01-11T11:35:52;94833.31;;;5.13;100.00
39223;BME280;24936;46.328;11.026;2024-01-11T11:38:22;94833.88;;;5.99;100.00
39223;BME280;24936;46.328;11.026;2024-01-11T11:40:50;94843.19;;;7.67;100.00
39223;BME280;24936;46.328;11.026;2024-01-11T11:43:17;94842.31;;;6.93;100.00
39223;BME280;24936;46.328;11.026;2024-01-11T11:45:44;94832.22;;;7.61;100.00
39223;BME280;24936;46.328;11.026;2024-01-11T11:51:11;94837.97;;;8.61;100.00
39223;BME280;24936;46.328;11.026;2024-01-11T11:56:03;94806.06;;;6.63;100.00
39223;BME280;24936;46.328;11.026;2024-01-11T11:58:30;94803.38;;;7.26;100.00
39223;BME280;24936;46.328;11.026;2024-01-11T12:00:58;94804.88;;;7.41;100.00
39223;BME280;24936;46.328;11.026;2024-01-11T12:03:30;94810.59;;;8.40;100.00
39223;BME280;24936;46.328;11.026;2024-01-11T12:05:57;94811.25;;;8.55;100.00
39223;BME280;24936;46.328;11.026;2024-01-11T12:08:22;94793.91;;;7.12;100.00
39223;BME280;24936;46.328;11.026;2024-01-11T12:10:48;94783.88;;;6.81;100.00
39223;BME280;24936;46.328;11.026;2024-01-11T12:13:14;94779.03;;;7.72;100.00
39223;BME280;24936;46.328;11.026;2024-01-11T12:15:40;94773.22;;;7.20;100.00
39223;BME280;24936;46.328;11.026;2024-01-11T12:18:06;94759.13;;;6.35;100.00
39223;BME280;24936;46.328;11.026;2024-01-11T12:20:33;94753.22;;;6.33;100.00
39223;BME280;24936;46.328;11.026;2024-01-11T12:22:58;94757.50;;;6.21;100.00
39223;BME280;24936;46.328;11.026;2024-01-11T12:25:25;94749.13;;;6.29;100.00
39223;BME280;24936;46.328;11.026;2024-01-11T12:27:50;94757.19;;;6.00;100.00
39223;BME280;24936;46.328;11.026;2024-01-11T12:30:19;94758.06;;;6.51;100.00
39223;BME280;24936;46.328;11.026;2024-01-11T12:32:47;94760.78;;;6.99;100.00
39223;BME280;24936;46.328;11.026;2024-01-11T12:35:13;94759.66;;;7.86;100.00
39223;BME280;24936;46.328;11.026;2024-01-11T12:37:38;94756.88;;;7.29;100.00
39223;BME280;24936;46.328;11.026;2024-01-11T12:40:04;94737.19;;;4.80;100.00
39223;BME280;24936;46.328;11.026;2024-01-11T12:42:34;94737.75;;;6.67;100.00